Startpagina
METAR-TAF:

METAR-TAF

Vliegvelden :

Sun City, Zuid-Afrika

breedte: 25-20-01S, lengte: 027-10-24E, hoogte: 1040 m

Actueel weer

Dit bericht is 1 uur en het 9 minuten geleden gemaakt, om 21:00 UTC
Wind 1 kt uit het oostzuidoosten
Temperatuur 11°C
Vochtigheid 17%
Druk 1022 hPa

METAR: FAPN 242100Z AUTO 11001KT //// // ////// 11/M13 Q1022

Tijdstip: 00:09 (22:09 UTC)


TAF: ontbreekt

Waarnemingen en weersverwachtingen van meer dan 4000 vliegvelden (METAR en TAF).

De beschikbare stations zijn de gele en rode punten op de kaart.

Ga met uw muis naar het station om de naam te zien.

Klik dan om waarnemingen en weersverwachtingen te zien.

kaart wijzigen: klik op de groene knoppen met een zwart kruis om in te zoomen, op de groene knop met een streepje om uit te zoomen of op de groene pijlen voor aangrenzende kaarten.


METAR-TAF: